createdAt,value
2018-02-08T00:00:32.505Z,-2.12
2018-02-08T00:01:32.976Z,-2.13
2018-02-08T00:02:33.450Z,-2.14
2018-02-08T00:03:33.914Z,-2.14
2018-02-08T00:04:34.384Z,-2.16
2018-02-08T00:05:34.859Z,-2.16
2018-02-08T00:06:35.324Z,-2.16
2018-02-08T00:07:35.792Z,-2.18
2018-02-08T00:08:36.263Z,-2.20
2018-02-08T00:09:36.734Z,-2.21
2018-02-08T00:10:37.202Z,-2.19
2018-02-08T00:11:37.670Z,-2.21
2018-02-08T00:12:38.140Z,-2.20
2018-02-08T00:13:38.664Z,-2.22
2018-02-08T00:14:39.080Z,-2.21
2018-02-08T00:15:39.549Z,-2.24
2018-02-08T00:16:40.020Z,-2.22
2018-02-08T00:17:40.489Z,-2.22
2018-02-08T00:18:40.958Z,-2.24
2018-02-08T00:19:41.428Z,-2.20
2018-02-08T00:20:41.896Z,-2.24
2018-02-08T00:21:42.366Z,-2.26
2018-02-08T00:22:42.837Z,-2.24
2018-02-08T00:23:43.306Z,-2.24
2018-02-08T00:24:43.777Z,-2.28
2018-02-08T00:25:44.244Z,-2.24
2018-02-08T00:26:44.714Z,-2.26
2018-02-08T00:27:45.183Z,-2.26
2018-02-08T00:28:45.703Z,-2.28
2018-02-08T00:29:46.124Z,-2.26
2018-02-08T00:30:46.595Z,-2.29
2018-02-08T00:31:47.060Z,-2.30
2018-02-08T00:32:47.530Z,-2.32
2018-02-08T00:33:48.049Z,-2.28
2018-02-08T00:34:48.470Z,-2.31
2018-02-08T00:35:48.939Z,-2.30
2018-02-08T00:36:49.409Z,-2.32
2018-02-08T00:37:49.879Z,-2.31
2018-02-08T00:38:50.346Z,-2.30
2018-02-08T00:39:50.816Z,-2.29
2018-02-08T00:40:51.286Z,-2.30
2018-02-08T00:41:51.755Z,-2.32
2018-02-08T00:42:52.227Z,-2.30
2018-02-08T00:43:52.744Z,-2.28
2018-02-08T00:44:53.165Z,-2.33
2018-02-08T00:45:53.634Z,-2.34
2018-02-08T00:46:54.103Z,-2.32
2018-02-08T00:47:54.571Z,-2.34
2018-02-08T00:48:55.042Z,-2.35
2018-02-08T00:49:55.513Z,-2.32
2018-02-08T00:50:55.981Z,-2.36
2018-02-08T00:51:56.450Z,-2.34
2018-02-08T00:52:56.918Z,-2.36
2018-02-08T00:53:57.387Z,-2.35
2018-02-08T00:54:57.858Z,-2.34
2018-02-08T00:55:58.326Z,-2.36
2018-02-08T00:56:58.797Z,-2.37
2018-02-08T00:57:59.266Z,-2.36
2018-02-08T00:58:59.785Z,-2.38
2018-02-08T01:00:00.204Z,-2.37
2018-02-08T01:01:00.674Z,-2.37
2018-02-08T01:02:01.142Z,-2.40
2018-02-08T01:03:01.612Z,-2.36
2018-02-08T01:04:02.081Z,-2.38
2018-02-08T01:05:02.552Z,-2.41
2018-02-08T01:06:03.021Z,-2.38
2018-02-08T01:07:03.489Z,-2.38
2018-02-08T01:08:03.956Z,-2.38
2018-02-08T01:09:04.430Z,-2.40
2018-02-08T01:10:04.897Z,-2.39
2018-02-08T01:11:05.365Z,-2.42
2018-02-08T01:12:05.834Z,-2.42
2018-02-08T01:13:06.306Z,-2.39
2018-02-08T01:14:06.776Z,-2.40
2018-02-08T01:15:07.245Z,-2.41
2018-02-08T01:16:07.712Z,-2.42
2018-02-08T01:17:08.182Z,-2.44
2018-02-08T01:18:08.651Z,-2.42
2018-02-08T01:19:09.120Z,-2.44
2018-02-08T01:20:09.590Z,-2.44
2018-02-08T01:21:10.058Z,-2.44
2018-02-08T01:22:10.528Z,-2.47
2018-02-08T01:23:10.997Z,-2.47
2018-02-08T01:24:11.469Z,-2.46
2018-02-08T01:25:11.936Z,-2.46
2018-02-08T01:26:12.404Z,-2.46
2018-02-08T01:27:12.875Z,-2.48
2018-02-08T01:28:13.343Z,-2.50
2018-02-08T01:29:13.861Z,-2.50
2018-02-08T01:30:14.281Z,-2.50
2018-02-08T01:31:14.752Z,-2.50
2018-02-08T01:32:15.219Z,-2.52
2018-02-08T01:33:15.689Z,-2.52
2018-02-08T01:34:16.160Z,-2.54
2018-02-08T01:35:16.627Z,-2.56
2018-02-08T01:36:17.096Z,-2.52
2018-02-08T01:37:17.564Z,-2.54
2018-02-08T01:38:18.036Z,-2.55
2018-02-08T01:39:18.504Z,-2.55
2018-02-08T01:40:18.972Z,-2.56
2018-02-08T01:41:19.442Z,-2.58
2018-02-08T01:42:19.911Z,-2.58
2018-02-08T01:43:20.383Z,-2.58
2018-02-08T01:44:20.849Z,-2.59
2018-02-08T01:45:21.317Z,-2.60
2018-02-08T01:46:21.787Z,-2.59
2018-02-08T01:47:22.259Z,-2.60
2018-02-08T01:48:22.724Z,-2.60
2018-02-08T01:49:23.196Z,-2.62
2018-02-08T01:50:23.664Z,-2.62
2018-02-08T01:51:24.134Z,-2.62
2018-02-08T01:52:24.601Z,-2.62
2018-02-08T01:53:25.071Z,-2.60
2018-02-08T01:54:25.539Z,-2.65
2018-02-08T01:55:26.008Z,-2.64
2018-02-08T01:56:26.477Z,-2.64
2018-02-08T01:57:26.946Z,-2.64
2018-02-08T01:58:27.415Z,-2.64
2018-02-08T01:59:27.883Z,-2.64
2018-02-08T02:00:28.352Z,-2.65
2018-02-08T02:01:28.823Z,-2.67
2018-02-08T02:02:29.291Z,-2.66
2018-02-08T02:03:29.761Z,-2.66
2018-02-08T02:04:30.229Z,-2.66
2018-02-08T02:05:30.698Z,-2.66
2018-02-08T02:06:31.167Z,-2.68
2018-02-08T02:07:31.639Z,-2.68
2018-02-08T02:08:32.104Z,-2.68
2018-02-08T02:09:32.573Z,-2.70
2018-02-08T02:10:33.044Z,-2.69
2018-02-08T02:11:33.510Z,-2.71
2018-02-08T02:12:33.980Z,-2.72
2018-02-08T02:13:34.449Z,-2.70
2018-02-08T02:14:34.920Z,-2.70
2018-02-08T02:15:35.390Z,-2.71
2018-02-08T02:16:35.856Z,-2.71
2018-02-08T02:17:36.323Z,-2.72
2018-02-08T02:18:36.793Z,-2.70
2018-02-08T02:19:37.312Z,-2.72
2018-02-08T02:20:37.729Z,-2.72
2018-02-08T02:21:38.200Z,-2.74
2018-02-08T02:22:38.669Z,-2.74
2018-02-08T02:23:39.137Z,-2.74
2018-02-08T02:24:39.606Z,-2.75
2018-02-08T02:25:40.075Z,-2.74
2018-02-08T02:26:40.544Z,-2.76
2018-02-08T02:27:41.012Z,-2.76
2018-02-08T02:28:41.482Z,-2.76
2018-02-08T02:29:42.001Z,-2.78
2018-02-08T02:30:42.424Z,-2.78
2018-02-08T02:31:42.889Z,-2.79
2018-02-08T02:32:43.357Z,-2.78
2018-02-08T02:33:43.826Z,-2.78
2018-02-08T02:34:44.300Z,-2.80
2018-02-08T02:35:44.762Z,-2.79
2018-02-08T02:36:45.231Z,-2.80
2018-02-08T02:37:45.698Z,-2.82
2018-02-08T02:38:46.170Z,-2.82
2018-02-08T02:39:46.688Z,-2.82
2018-02-08T02:40:47.106Z,-2.82
2018-02-08T02:41:47.576Z,-2.82
2018-02-08T02:42:48.043Z,-2.82
2018-02-08T02:43:48.526Z,-2.82
2018-02-08T02:44:48.986Z,-2.84
2018-02-08T02:45:49.455Z,-2.84
2018-02-08T02:46:49.919Z,-2.84
2018-02-08T02:47:50.392Z,-2.84
2018-02-08T02:48:50.861Z,-2.84
2018-02-08T02:49:51.380Z,-2.85
2018-02-08T02:50:51.794Z,-2.82
2018-02-08T02:51:52.270Z,-2.85
2018-02-08T02:52:52.734Z,-2.86
2018-02-08T02:53:53.205Z,-2.84
2018-02-08T02:55:54.136Z,-2.86
2018-02-08T02:57:55.084Z,-2.88
2018-02-08T02:58:55.548Z,-2.87
2018-02-08T02:59:56.017Z,-2.86
2018-02-08T03:00:56.484Z,-2.88
2018-02-08T03:01:56.955Z,-2.86
2018-02-08T03:02:57.423Z,-2.88
2018-02-08T03:03:57.887Z,-2.87
2018-02-08T03:05:58.878Z,-2.88
2018-02-08T03:06:59.297Z,-2.89
2018-02-08T03:07:59.765Z,-2.88
2018-02-08T03:09:00.233Z,-2.90
2018-02-08T03:10:00.701Z,-2.92
2018-02-08T03:11:01.174Z,-2.90
2018-02-08T03:12:01.639Z,-2.88
2018-02-08T03:13:02.110Z,-2.92
2018-02-08T03:14:02.579Z,-2.90
2018-02-08T03:15:03.042Z,-2.91
2018-02-08T03:16:03.514Z,-2.92
2018-02-08T03:17:03.986Z,-2.90
2018-02-08T03:18:04.451Z,-2.91
2018-02-08T03:19:04.921Z,-2.92
2018-02-08T03:20:05.389Z,-2.94
2018-02-08T03:21:05.857Z,-2.90
2018-02-08T03:22:06.323Z,-2.91
2018-02-08T03:24:07.263Z,-2.92
2018-02-08T03:25:07.731Z,-2.92
2018-02-08T03:26:08.195Z,-2.92
2018-02-08T03:27:08.669Z,-2.92
2018-02-08T03:28:09.137Z,-2.92
2018-02-08T03:29:09.605Z,-2.92
2018-02-08T03:30:10.074Z,-2.93
2018-02-08T03:31:10.595Z,-2.94
2018-02-08T03:32:11.013Z,-2.94
2018-02-08T03:33:11.476Z,-2.94
2018-02-08T03:34:11.949Z,-2.93
2018-02-08T03:35:12.419Z,-2.94
2018-02-08T03:37:13.354Z,-2.94
2018-02-08T03:38:13.823Z,-2.94
2018-02-08T03:39:14.292Z,-2.94
2018-02-08T03:40:14.756Z,-2.94
2018-02-08T03:41:15.228Z,-2.96
2018-02-08T03:42:15.696Z,-2.96
2018-02-08T03:43:16.166Z,-2.96
2018-02-08T03:44:16.634Z,-2.96
2018-02-08T03:45:17.109Z,-2.96
2018-02-08T03:48:18.505Z,-2.95
2018-02-08T03:49:18.976Z,-2.98
2018-02-08T03:50:19.439Z,-2.98
2018-02-08T03:51:19.964Z,-2.98
2018-02-08T03:52:20.384Z,-2.98
2018-02-08T03:53:20.851Z,-2.99
2018-02-08T03:54:21.314Z,-2.99
2018-02-08T03:55:21.790Z,-3.00
2018-02-08T03:57:22.723Z,-2.98
2018-02-08T03:58:23.196Z,-2.98
2018-02-08T03:59:23.662Z,-3.00
2018-02-08T04:00:24.131Z,-3.00
2018-02-08T04:01:24.657Z,-3.00
2018-02-08T04:03:25.536Z,-3.02
2018-02-08T04:04:26.007Z,-3.02
2018-02-08T04:05:26.467Z,-3.02
2018-02-08T04:06:26.992Z,-3.02
2018-02-08T04:08:27.880Z,-3.02
2018-02-08T04:09:28.345Z,-3.02
2018-02-08T04:10:28.814Z,-3.04
2018-02-08T04:11:29.283Z,-3.02
2018-02-08T04:13:30.220Z,-3.04
2018-02-08T04:14:30.683Z,-3.02
2018-02-08T04:15:31.158Z,-3.04
2018-02-08T04:16:31.677Z,-3.04
2018-02-08T04:17:32.094Z,-3.04
2018-02-08T04:18:32.562Z,-3.03
2018-02-08T04:19:33.030Z,-3.03
2018-02-08T04:20:33.499Z,-3.04
2018-02-08T04:21:33.961Z,-3.04
2018-02-08T04:23:34.906Z,-3.04
2018-02-08T04:24:35.368Z,-3.04
2018-02-08T04:25:35.843Z,-3.04
2018-02-08T04:26:36.360Z,-3.04
2018-02-08T04:27:36.780Z,-3.06
2018-02-08T04:28:37.240Z,-3.06
2018-02-08T04:29:37.716Z,-3.05
2018-02-08T04:30:38.182Z,-3.06
2018-02-08T04:31:38.652Z,-3.06
2018-02-08T04:32:39.120Z,-3.05
2018-02-08T04:33:39.591Z,-3.06
2018-02-08T04:35:40.521Z,-3.08
2018-02-08T04:37:41.462Z,-3.06
2018-02-08T04:38:41.931Z,-3.06
2018-02-08T04:39:42.395Z,-3.06
2018-02-08T04:42:43.804Z,-3.08
2018-02-08T04:43:44.274Z,-3.07
2018-02-08T04:44:44.741Z,-3.06
2018-02-08T04:45:45.213Z,-3.07
2018-02-08T04:46:45.723Z,-3.07
2018-02-08T04:47:46.145Z,-3.10
2018-02-08T04:48:46.614Z,-3.09
2018-02-08T04:49:47.082Z,-3.08
2018-02-08T04:50:47.551Z,-3.10
2018-02-08T04:51:48.019Z,-3.09
2018-02-08T04:52:48.488Z,-3.10
2018-02-08T04:53:48.956Z,-3.11
2018-02-08T04:54:49.423Z,-3.10
2018-02-08T04:56:50.355Z,-3.12
2018-02-08T04:57:50.831Z,-3.10
2018-02-08T04:58:51.295Z,-3.12
2018-02-08T04:59:51.765Z,-3.12
2018-02-08T05:00:52.236Z,-3.11
2018-02-08T05:01:52.756Z,-3.13
2018-02-08T05:02:53.167Z,-3.12
2018-02-08T05:04:54.111Z,-3.13
2018-02-08T05:05:54.575Z,-3.12
2018-02-08T05:06:55.049Z,-3.12
2018-02-08T05:07:55.514Z,-3.12
2018-02-08T05:08:55.983Z,-3.10
2018-02-08T05:09:56.448Z,-3.11
2018-02-08T05:10:56.917Z,-3.12
2018-02-08T05:11:57.386Z,-3.12
2018-02-08T05:12:57.860Z,-3.12
2018-02-08T05:14:58.790Z,-3.12
2018-02-08T05:15:59.259Z,-3.13
2018-02-08T05:16:59.780Z,-3.13
2018-02-08T05:18:00.192Z,-3.14
2018-02-08T05:19:00.663Z,-3.12
2018-02-08T05:20:01.133Z,-3.12
2018-02-08T05:21:01.600Z,-3.15
2018-02-08T05:22:02.116Z,-3.12
2018-02-08T05:24:03.008Z,-3.12
2018-02-08T05:25:03.469Z,-3.12
2018-02-08T05:26:03.944Z,-3.12
2018-02-08T05:27:04.464Z,-3.12
2018-02-08T05:28:04.880Z,-3.12
2018-02-08T05:29:05.353Z,-3.12
2018-02-08T05:30:05.810Z,-3.13
2018-02-08T05:31:06.286Z,-3.14
2018-02-08T05:32:06.806Z,-3.12
2018-02-08T05:33:07.223Z,-3.11
2018-02-08T05:34:07.691Z,-3.14
2018-02-08T05:35:08.158Z,-3.10
2018-02-08T05:36:08.621Z,-3.12
2018-02-08T05:37:09.094Z,-3.13
2018-02-08T05:38:09.566Z,-3.13
2018-02-08T05:39:10.036Z,-3.12
2018-02-08T05:40:10.502Z,-3.12
2018-02-08T05:41:10.972Z,-3.12
2018-02-08T05:42:11.488Z,-3.13
2018-02-08T05:43:11.907Z,-3.14
2018-02-08T05:44:12.378Z,-3.14
2018-02-08T05:45:12.837Z,-3.12
2018-02-08T05:46:13.309Z,-3.14
2018-02-08T05:48:14.248Z,-3.14
2018-02-08T05:49:14.716Z,-3.14
2018-02-08T05:50:15.184Z,-3.14
2018-02-08T05:51:15.652Z,-3.15
2018-02-08T05:52:27.508Z,-3.14
2018-02-08T05:53:16.589Z,-3.15
2018-02-08T05:54:17.057Z,-3.14
2018-02-08T05:55:17.526Z,-3.14
2018-02-08T05:56:17.997Z,-3.14
2018-02-08T05:57:18.508Z,-3.14
2018-02-08T05:58:18.931Z,-3.15
2018-02-08T05:59:19.393Z,-3.15
2018-02-08T06:00:19.869Z,-3.16
2018-02-08T06:01:20.336Z,-3.16
2018-02-08T06:03:21.268Z,-3.16
2018-02-08T06:04:21.742Z,-3.17
2018-02-08T06:05:22.210Z,-3.18
2018-02-08T06:06:22.679Z,-3.17
2018-02-08T06:09:24.078Z,-3.20
2018-02-08T06:11:25.020Z,-3.18
2018-02-08T06:12:25.488Z,-3.18
2018-02-08T06:14:26.424Z,-3.20
2018-02-08T06:15:26.889Z,-3.22
2018-02-08T06:16:27.362Z,-3.20
2018-02-08T06:17:27.830Z,-3.20
2018-02-08T06:18:40.539Z,-3.22
2018-02-08T06:19:28.769Z,-3.22
2018-02-08T06:20:29.236Z,-3.22
2018-02-08T06:21:29.703Z,-3.24
2018-02-08T06:22:30.170Z,-3.22
2018-02-08T06:23:30.692Z,-3.24
2018-02-08T06:24:31.103Z,-3.23
2018-02-08T06:25:31.578Z,-3.23
2018-02-08T06:26:32.045Z,-3.26
2018-02-08T06:27:32.514Z,-3.24
2018-02-08T06:28:32.981Z,-3.26
2018-02-08T06:29:33.454Z,-3.26
2018-02-08T06:30:33.913Z,-3.28
2018-02-08T06:31:34.385Z,-3.28
2018-02-08T06:32:34.854Z,-3.26
2018-02-08T06:34:35.791Z,-3.26
2018-02-08T06:35:36.261Z,-3.28
2018-02-08T06:36:36.727Z,-3.29
2018-02-08T06:38:37.664Z,-3.28
2018-02-08T06:39:38.184Z,-3.28
2018-02-08T06:40:38.594Z,-3.28
2018-02-08T06:41:39.070Z,-3.28
2018-02-08T06:42:39.539Z,-3.28
2018-02-08T06:43:40.004Z,-3.27
2018-02-08T06:45:40.942Z,-3.28
2018-02-08T06:46:41.415Z,-3.28
2018-02-08T06:47:41.873Z,-3.26
2018-02-08T06:48:42.347Z,-3.27
2018-02-08T06:49:42.816Z,-3.26
2018-02-08T06:50:43.332Z,-3.26
2018-02-08T06:51:43.750Z,-3.26
2018-02-08T06:52:44.219Z,-3.26
2018-02-08T06:53:44.685Z,-3.28
2018-02-08T06:54:45.150Z,-3.26
2018-02-08T06:55:45.674Z,-3.24
2018-02-08T06:56:46.091Z,-3.24
2018-02-08T06:57:46.560Z,-3.24
2018-02-08T06:58:47.028Z,-3.24
2018-02-08T06:59:47.489Z,-3.25
2018-02-08T07:00:47.964Z,-3.26
2018-02-08T07:01:48.432Z,-3.26
2018-02-08T07:02:48.915Z,-3.24
2018-02-08T07:03:49.369Z,-3.26
2018-02-08T07:05:50.304Z,-3.24
2018-02-08T07:06:50.771Z,-3.25
2018-02-08T07:07:51.242Z,-3.25
2018-02-08T07:08:51.738Z,-3.23
2018-02-08T07:09:52.178Z,-3.24
2018-02-08T07:11:53.108Z,-3.23
2018-02-08T07:12:53.583Z,-3.24
2018-02-08T07:13:54.051Z,-3.23
2018-02-08T07:14:54.519Z,-3.22
2018-02-08T07:15:54.982Z,-3.22
2018-02-08T07:16:55.506Z,-3.22
2018-02-08T07:17:55.928Z,-3.22
2018-02-08T07:18:56.391Z,-3.20
2018-02-08T07:19:56.859Z,-3.22
2018-02-08T07:20:57.329Z,-3.20
2018-02-08T07:21:57.800Z,-3.19
2018-02-08T07:22:58.264Z,-3.18
2018-02-08T07:23:58.731Z,-3.18
2018-02-08T07:24:59.201Z,-3.16
2018-02-08T07:25:59.670Z,-3.16
2018-02-08T07:27:00.132Z,-3.14
2018-02-08T07:28:00.604Z,-3.12
2018-02-08T07:29:01.074Z,-3.11
2018-02-08T07:31:02.008Z,-3.09
2018-02-08T07:32:02.529Z,-3.06
2018-02-08T07:33:02.946Z,-3.04
2018-02-08T07:35:03.883Z,-3.00
2018-02-08T07:36:04.352Z,-2.98
2018-02-08T07:37:04.820Z,-2.97
2018-02-08T07:38:05.282Z,-2.94
2018-02-08T07:40:06.224Z,-2.88
2018-02-08T07:41:06.717Z,-2.86
2018-02-08T07:43:07.629Z,-2.78
2018-02-08T07:44:08.097Z,-2.71
2018-02-08T07:45:08.564Z,-2.70
2018-02-08T07:46:09.038Z,-2.66
2018-02-08T07:47:09.551Z,-2.60
2018-02-08T07:48:09.973Z,-2.53
2018-02-08T07:49:10.441Z,-2.48
2018-02-08T07:50:10.912Z,-2.42
2018-02-08T07:51:11.378Z,-2.35
2018-02-08T07:52:11.843Z,-2.30
2018-02-08T07:53:12.314Z,-2.21
2018-02-08T07:54:12.788Z,-2.20
2018-02-08T07:55:13.252Z,-2.10
2018-02-08T07:56:13.724Z,-2.07
2018-02-08T07:57:14.187Z,-2.04
2018-02-08T07:58:14.664Z,-1.94
2018-02-08T07:59:15.128Z,-1.87
2018-02-08T08:00:15.597Z,-1.85
2018-02-08T08:01:16.066Z,-1.81
2018-02-08T08:02:16.536Z,-1.76
2018-02-08T08:03:16.999Z,-1.72
2018-02-08T08:04:17.474Z,-1.70
2018-02-08T08:05:17.943Z,-1.65
2018-02-08T08:06:18.414Z,-1.62
2018-02-08T08:07:18.881Z,-1.57
2018-02-08T08:08:19.352Z,-1.56
2018-02-08T08:09:19.820Z,-1.52
2018-02-08T08:11:20.758Z,-1.47
2018-02-08T08:12:21.278Z,-1.44
2018-02-08T08:13:21.703Z,-1.41
2018-02-08T08:14:22.161Z,-1.38
2018-02-08T08:15:22.635Z,-1.36
2018-02-08T08:16:23.105Z,-1.34
2018-02-08T08:17:35.668Z,-1.33
2018-02-08T08:19:24.514Z,-1.28
2018-02-08T08:20:24.983Z,-1.26
2018-02-08T08:21:25.454Z,-1.22
2018-02-08T08:22:25.917Z,-1.20
2018-02-08T08:23:26.391Z,-1.20
2018-02-08T08:24:26.860Z,-1.16
2018-02-08T08:25:27.331Z,-1.16
2018-02-08T08:26:27.802Z,-1.12
2018-02-08T08:27:28.347Z,-1.10
2018-02-08T08:28:28.759Z,-1.08
2018-02-08T08:29:29.206Z,-1.06
2018-02-08T08:30:29.678Z,-1.04
2018-02-08T08:31:30.141Z,-1.04
2018-02-08T08:32:30.617Z,-1.00
2018-02-08T08:33:31.087Z,-0.98
2018-02-08T08:34:31.558Z,-0.97
2018-02-08T08:35:32.025Z,-0.95
2018-02-08T08:36:32.494Z,-0.92
2018-02-08T08:37:32.963Z,-0.90
2018-02-08T08:38:33.434Z,-0.88
2018-02-08T08:40:34.371Z,-0.84
2018-02-08T08:41:34.843Z,-0.82
2018-02-08T08:42:46.692Z,-0.80
2018-02-08T08:43:35.781Z,-0.78
2018-02-08T08:44:36.290Z,-0.74
2018-02-08T08:45:36.724Z,-0.74
2018-02-08T08:46:37.193Z,-0.70
2018-02-08T08:48:38.128Z,-0.66
2018-02-08T08:49:38.602Z,-0.62
2018-02-08T08:51:39.542Z,-0.58
2018-02-08T08:52:40.011Z,-0.56
2018-02-08T08:54:40.953Z,-0.50
2018-02-08T08:55:41.420Z,-0.48
2018-02-08T08:57:42.363Z,-0.42
2018-02-08T08:58:42.832Z,-0.40
2018-02-08T08:59:43.297Z,-0.36
2018-02-08T09:02:44.712Z,-0.28
2018-02-08T09:05:46.123Z,-0.18
2018-02-08T09:06:46.594Z,-0.14
2018-02-08T09:07:47.056Z,-0.12
2018-02-08T09:08:47.533Z,-0.06
2018-02-08T09:09:48.004Z,0.00
2018-02-08T09:10:48.475Z,0.04
2018-02-08T09:11:48.944Z,0.08
2018-02-08T09:12:49.417Z,0.14
2018-02-08T09:13:49.886Z,0.19
2018-02-08T09:14:50.359Z,0.24
2018-02-08T09:15:50.826Z,0.30
2018-02-08T09:16:51.297Z,0.35
2018-02-08T09:17:51.763Z,0.40
2018-02-08T09:19:03.722Z,0.48
2018-02-08T09:19:52.708Z,0.52
2018-02-08T09:20:53.181Z,0.60
2018-02-08T09:21:53.646Z,0.64
2018-02-08T09:22:54.125Z,0.72
2018-02-08T09:23:54.591Z,0.78
2018-02-08T09:24:55.064Z,0.85
2018-02-08T09:25:55.539Z,0.92
2018-02-08T09:26:56.006Z,1.01
2018-02-08T09:27:56.479Z,1.08
2018-02-08T09:28:56.950Z,1.16
2018-02-08T09:30:57.894Z,1.34
2018-02-08T09:31:58.363Z,1.42
2018-02-08T09:32:58.833Z,1.50
2018-02-08T09:33:59.353Z,1.58
2018-02-08T09:34:59.778Z,1.65
2018-02-08T09:36:00.248Z,1.74
2018-02-08T09:37:00.723Z,1.83
2018-02-08T09:38:01.187Z,1.92
2018-02-08T09:39:13.752Z,2.02
2018-02-08T09:40:02.137Z,2.10
2018-02-08T09:41:02.610Z,2.18
2018-02-08T09:42:03.081Z,2.29
2018-02-08T09:43:03.552Z,2.36
2018-02-08T09:44:04.024Z,2.48
2018-02-08T09:45:04.492Z,2.57
2018-02-08T09:46:04.970Z,2.67
2018-02-08T09:47:05.443Z,2.76
2018-02-08T09:48:05.916Z,2.87
2018-02-08T09:49:06.386Z,2.95
2018-02-08T09:50:06.859Z,3.04
2018-02-08T09:51:07.332Z,3.14
2018-02-08T09:52:07.804Z,3.24
2018-02-08T09:53:08.272Z,3.32
2018-02-08T09:54:08.800Z,3.46
2018-02-08T09:55:09.222Z,3.52
2018-02-08T09:56:09.696Z,3.61
2018-02-08T09:57:10.165Z,3.69
2018-02-08T09:58:10.641Z,3.78
2018-02-08T10:00:11.587Z,3.94
2018-02-08T10:01:12.061Z,4.04
2018-02-08T10:02:12.535Z,4.12
2018-02-08T10:03:13.008Z,4.19
2018-02-08T10:04:13.482Z,4.24
2018-02-08T10:05:13.954Z,4.31
2018-02-08T10:06:14.425Z,4.36
2018-02-08T10:07:14.900Z,4.42
2018-02-08T10:08:15.373Z,4.48
2018-02-08T10:09:15.845Z,4.56
2018-02-08T10:10:16.319Z,4.62
2018-02-08T10:11:16.795Z,4.68
2018-02-08T10:12:17.267Z,4.72
2018-02-08T10:13:17.745Z,4.78
2018-02-08T10:14:18.215Z,4.85
2018-02-08T10:15:18.688Z,4.92
2018-02-08T10:16:19.162Z,4.97
2018-02-08T10:17:19.634Z,5.03
2018-02-08T10:18:20.110Z,5.09
2018-02-08T10:19:20.585Z,5.16
2018-02-08T10:20:21.106Z,5.22
2018-02-08T10:21:21.532Z,5.29
2018-02-08T10:22:22.007Z,5.34
2018-02-08T10:23:22.476Z,5.41
2018-02-08T10:25:23.479Z,5.54
2018-02-08T10:26:23.901Z,5.62
2018-02-08T10:27:24.378Z,5.67
2018-02-08T10:28:24.852Z,5.74
2018-02-08T10:29:25.326Z,5.80
2018-02-08T10:30:25.997Z,5.87
2018-02-08T10:31:26.273Z,5.96
2018-02-08T10:32:26.748Z,6.04
2018-02-08T10:33:27.222Z,6.11
2018-02-08T10:34:27.694Z,6.19
2018-02-08T10:35:28.225Z,6.28
2018-02-08T10:36:28.647Z,6.36
2018-02-08T10:37:29.121Z,6.48
2018-02-08T10:38:29.595Z,6.55
2018-02-08T10:45:26.214Z,7.26
2018-02-08T10:46:26.485Z,7.37
2018-02-08T10:47:26.961Z,7.47
2018-02-08T10:48:27.436Z,7.59
2018-02-08T10:49:27.904Z,7.68
2018-02-08T10:51:28.861Z,7.90
2018-02-08T10:52:29.337Z,8.02
2018-02-08T10:53:29.812Z,8.12
2018-02-08T10:54:30.290Z,8.24
2018-02-08T10:56:31.239Z,8.46
2018-02-08T10:57:31.708Z,8.57
2018-02-08T10:58:32.188Z,8.68
2018-02-08T10:59:32.663Z,8.78
2018-02-08T11:01:33.610Z,9.01
2018-02-08T11:02:34.106Z,9.12
2018-02-08T11:03:34.565Z,9.22
2018-02-08T11:05:35.569Z,9.44
2018-02-08T11:07:36.470Z,9.64
2018-02-08T11:08:36.948Z,9.74
2018-02-08T11:09:37.421Z,9.82
2018-02-08T11:10:37.946Z,9.90
2018-02-08T11:11:38.369Z,9.99
2018-02-08T11:12:38.847Z,10.07
2018-02-08T11:13:39.320Z,10.14
2018-02-08T11:14:39.796Z,10.21
2018-02-08T11:15:51.549Z,10.29
2018-02-08T11:16:40.746Z,10.37
2018-02-08T11:17:41.221Z,10.41
2018-02-08T11:18:41.688Z,10.48
2018-02-08T11:19:42.188Z,10.54
2018-02-08T11:21:43.119Z,10.66
2018-02-08T11:22:43.589Z,10.72
2018-02-08T11:23:44.063Z,10.78
2018-02-08T11:24:44.536Z,10.82
2018-02-08T11:25:45.006Z,10.88
2018-02-08T11:26:45.481Z,10.92
2018-02-08T11:28:46.426Z,10.98
2018-02-08T11:29:46.897Z,11.00
2018-02-08T11:30:47.372Z,11.02
2018-02-08T11:31:47.894Z,11.02
2018-02-08T11:32:48.314Z,11.00
2018-02-08T11:33:48.785Z,10.98
2018-02-08T11:34:49.257Z,10.98
2018-02-08T11:35:49.770Z,10.96
2018-02-08T11:36:50.201Z,10.94
2018-02-08T11:37:50.671Z,10.94
2018-02-08T11:38:51.141Z,10.94
2018-02-08T11:39:51.615Z,10.98
2018-02-08T11:40:52.089Z,10.97
2018-02-08T11:41:52.560Z,10.98
2018-02-08T11:42:53.032Z,11.00
2018-02-08T11:44:53.975Z,11.02
2018-02-08T11:45:54.445Z,11.02
2018-02-08T11:46:54.916Z,11.01
2018-02-08T11:47:55.390Z,11.00
2018-02-08T11:48:55.861Z,11.01
2018-02-08T11:49:56.336Z,11.00
2018-02-08T11:50:56.805Z,10.99
2018-02-08T11:51:57.330Z,10.98
2018-02-08T11:53:58.225Z,10.98
2018-02-08T11:54:58.692Z,10.97
2018-02-08T11:55:59.170Z,10.96
2018-02-08T11:56:59.694Z,10.96
2018-02-08T11:58:00.117Z,10.97
2018-02-08T11:59:00.585Z,10.98
2018-02-08T12:00:01.064Z,10.99
2018-02-08T12:01:01.536Z,11.02
2018-02-08T12:02:02.014Z,11.04
2018-02-08T12:03:02.483Z,11.08
2018-02-08T12:04:02.957Z,11.12
2018-02-08T12:05:03.433Z,11.16
2018-02-08T12:06:03.902Z,11.22
2018-02-08T12:07:04.380Z,11.27
2018-02-08T12:08:04.854Z,11.33
2018-02-08T12:09:05.329Z,11.38
2018-02-08T12:10:05.801Z,11.44
2018-02-08T12:11:06.276Z,11.49
2018-02-08T12:12:06.790Z,11.54
2018-02-08T12:14:07.700Z,11.59
2018-02-08T12:15:08.175Z,11.61
2018-02-08T12:16:08.653Z,11.62
2018-02-08T12:17:09.124Z,11.64
2018-02-08T12:18:09.796Z,11.63
2018-02-08T12:20:10.558Z,11.58
2018-02-08T12:21:11.026Z,11.56
2018-02-08T12:22:11.552Z,11.53
2018-02-08T12:23:11.977Z,11.50
2018-02-08T12:24:12.452Z,11.44
2018-02-08T12:25:12.923Z,11.40
2018-02-08T12:26:13.400Z,11.34
2018-02-08T12:27:13.877Z,11.30
2018-02-08T12:28:14.354Z,11.25
2018-02-08T12:29:14.830Z,11.20
2018-02-08T12:30:15.305Z,11.16
2018-02-08T12:31:15.799Z,11.10
2018-02-08T12:32:16.257Z,11.04
2018-02-08T12:33:16.732Z,10.99
2018-02-08T12:34:17.206Z,10.94
2018-02-08T12:35:17.679Z,10.88
2018-02-08T12:37:18.684Z,10.76
2018-02-08T12:38:19.109Z,10.72
2018-02-08T12:39:19.586Z,10.66
2018-02-08T12:40:20.061Z,10.60
2018-02-08T12:41:20.534Z,10.54
2018-02-08T12:42:21.205Z,10.48
2018-02-08T12:43:21.482Z,10.42
2018-02-08T12:44:21.961Z,10.37
2018-02-08T12:45:22.432Z,10.32
2018-02-08T12:46:22.904Z,10.26
2018-02-08T12:47:23.380Z,10.21
2018-02-08T12:48:23.852Z,10.16
2018-02-08T12:50:24.798Z,10.05
2018-02-08T12:51:25.270Z,10.02
2018-02-08T12:52:37.731Z,9.96
2018-02-08T12:53:26.219Z,9.91
2018-02-08T12:54:26.682Z,9.87
2018-02-08T12:55:27.160Z,9.83
2018-02-08T12:56:27.634Z,9.78
2018-02-08T12:57:28.157Z,9.74
2018-02-08T12:58:28.577Z,9.70
2018-02-08T12:59:29.048Z,9.67
2018-02-08T13:00:29.519Z,9.62
2018-02-08T13:01:29.984Z,9.61
2018-02-08T13:02:30.513Z,9.58
2018-02-08T13:03:30.933Z,9.54
2018-02-08T13:04:31.406Z,9.51
2018-02-08T13:05:31.878Z,9.49
2018-02-08T13:06:32.349Z,9.46
2018-02-08T13:07:32.872Z,9.42
2018-02-08T13:08:33.287Z,9.39
2018-02-08T13:09:33.767Z,9.38
2018-02-08T13:10:34.235Z,9.36
2018-02-08T13:11:34.707Z,9.35
2018-02-08T13:12:35.180Z,9.32
2018-02-08T13:13:35.653Z,9.30
2018-02-08T13:14:36.124Z,9.30
2018-02-08T13:15:36.596Z,9.28
2018-02-08T13:16:37.070Z,9.26
2018-02-08T13:18:38.015Z,9.23
2018-02-08T13:19:38.480Z,9.23
2018-02-08T13:20:38.959Z,9.22
2018-02-08T13:21:39.431Z,9.19
2018-02-08T13:22:39.904Z,9.19
2018-02-08T13:23:40.377Z,9.19
2018-02-08T13:24:40.851Z,9.16
2018-02-08T13:25:41.324Z,9.14
2018-02-08T13:26:41.791Z,9.12
2018-02-08T13:27:42.272Z,9.10
2018-02-08T13:28:42.744Z,9.10
2018-02-08T13:30:43.686Z,9.07
2018-02-08T13:31:44.166Z,9.05
2018-02-08T13:32:44.638Z,9.03
2018-02-08T13:33:45.114Z,9.02
2018-02-08T13:34:45.583Z,9.00
2018-02-08T13:35:46.057Z,8.98
2018-02-08T13:36:46.539Z,8.95
2018-02-08T13:37:47.010Z,8.93
2018-02-08T13:39:47.960Z,8.92
2018-02-08T13:40:48.468Z,8.88
2018-02-08T13:41:48.910Z,8.88
2018-02-08T13:42:49.383Z,8.86
2018-02-08T13:43:49.860Z,8.83
2018-02-08T13:44:50.371Z,8.82
2018-02-08T13:45:50.810Z,8.81
2018-02-08T13:46:51.284Z,8.80
2018-02-08T13:47:51.759Z,8.78
2018-02-08T13:48:52.231Z,8.77
2018-02-08T13:49:52.712Z,8.75
2018-02-08T13:50:53.187Z,8.74
2018-02-08T13:51:53.663Z,8.72
2018-02-08T13:52:54.138Z,8.72
2018-02-08T13:53:54.609Z,8.69
2018-02-08T13:54:55.088Z,8.69
2018-02-08T13:55:55.563Z,8.68
2018-02-08T13:56:56.041Z,8.64
2018-02-08T13:57:56.516Z,8.64
2018-02-08T13:58:57.042Z,8.60
2018-02-08T13:59:57.462Z,8.60
2018-02-08T14:00:57.943Z,8.56
2018-02-08T14:01:58.420Z,8.52
2018-02-08T14:02:58.937Z,8.50
2018-02-08T14:04:59.842Z,8.43
2018-02-08T14:06:00.317Z,8.39
2018-02-08T14:07:00.790Z,8.38
2018-02-08T14:08:01.262Z,8.33
2018-02-08T14:09:01.790Z,8.28
2018-02-08T14:10:02.218Z,8.24
2018-02-08T14:12:03.159Z,8.18
2018-02-08T14:13:03.630Z,8.12
2018-02-08T14:14:04.157Z,8.07
2018-02-08T14:15:04.578Z,8.02
2018-02-08T14:16:05.049Z,7.98
2018-02-08T14:17:05.523Z,7.96
2018-02-08T14:18:05.996Z,7.90